createdAt,value
2022-09-06T00:00:14.458Z,16.90
2022-09-06T00:02:41.938Z,16.90
2022-09-06T00:05:09.583Z,16.90
2022-09-06T00:07:37.082Z,16.90
2022-09-06T00:10:04.852Z,16.90
2022-09-06T00:12:32.299Z,16.80
2022-09-06T00:14:59.559Z,16.80
2022-09-06T00:17:26.845Z,16.80
2022-09-06T00:19:54.107Z,16.60
2022-09-06T00:22:21.342Z,16.60
2022-09-06T00:24:48.581Z,16.50
2022-09-06T00:27:15.947Z,16.40
2022-09-06T00:29:43.286Z,16.50
2022-09-06T00:32:10.519Z,16.50
2022-09-06T00:34:37.763Z,16.50
2022-09-06T00:37:05.020Z,16.50
2022-09-06T00:39:32.312Z,16.50
2022-09-06T00:41:59.581Z,16.50
2022-09-06T00:44:26.886Z,16.40
2022-09-06T00:46:54.169Z,16.40
2022-09-06T00:49:24.309Z,16.30
2022-09-06T00:52:06.091Z,16.30
2022-09-06T00:54:33.421Z,16.20
2022-09-06T00:57:00.647Z,16.30
2022-09-06T00:59:29.276Z,16.30
2022-09-06T01:01:56.672Z,16.30
2022-09-06T01:04:24.117Z,16.30
2022-09-06T01:06:57.570Z,16.20
2022-09-06T01:09:28.558Z,16.20
2022-09-06T01:12:08.632Z,16.20
2022-09-06T01:15:06.971Z,16.20
2022-09-06T01:17:53.050Z,16.10
2022-09-06T01:20:48.410Z,16.00
2022-09-06T01:23:32.256Z,16.10
2022-09-06T01:26:04.202Z,16.10
2022-09-06T01:28:43.989Z,16.10
2022-09-06T01:31:41.974Z,16.10
2022-09-06T01:34:15.953Z,16.10
2022-09-06T01:37:08.281Z,16.10
2022-09-06T01:39:34.523Z,16.00
2022-09-06T01:42:22.501Z,15.90
2022-09-06T01:45:02.623Z,15.80
2022-09-06T01:47:32.632Z,15.70
2022-09-06T01:50:24.194Z,15.70
2022-09-06T01:53:06.575Z,15.70
2022-09-06T01:55:46.907Z,15.60
2022-09-06T01:58:26.209Z,15.60
2022-09-06T02:01:01.032Z,15.60
2022-09-06T02:03:30.406Z,15.70
2022-09-06T02:06:03.037Z,15.70
2022-09-06T02:08:51.493Z,15.70
2022-09-06T02:11:18.750Z,15.70
2022-09-06T02:13:49.562Z,15.80
2022-09-06T02:16:19.727Z,15.70
2022-09-06T02:19:09.722Z,15.60
2022-09-06T02:21:38.459Z,15.40
2022-09-06T02:24:08.831Z,15.40
2022-09-06T02:26:38.055Z,15.50
2022-09-06T02:29:05.360Z,15.50
2022-09-06T02:31:35.833Z,15.40
2022-09-06T02:34:03.138Z,15.30
2022-09-06T02:36:31.001Z,15.30
2022-09-06T02:39:00.070Z,15.30
2022-09-06T02:41:27.290Z,15.40
2022-09-06T02:43:54.531Z,15.40
2022-09-06T02:46:23.620Z,15.30
2022-09-06T02:48:51.407Z,15.20
2022-09-06T02:51:18.663Z,15.10
2022-09-06T02:53:46.029Z,15.00
2022-09-06T02:56:13.239Z,14.90
2022-09-06T02:58:40.487Z,14.80
2022-09-06T03:01:07.863Z,14.90
2022-09-06T03:03:35.219Z,14.80
2022-09-06T03:06:02.494Z,14.80
2022-09-06T03:08:33.387Z,14.90
2022-09-06T03:11:00.942Z,14.80
2022-09-06T03:13:28.261Z,14.90
2022-09-06T03:15:57.136Z,14.90
2022-09-06T03:18:25.088Z,15.00
2022-09-06T03:20:53.037Z,15.00
2022-09-06T03:23:21.008Z,15.00
2022-09-06T03:25:48.273Z,15.00
2022-09-06T03:28:16.007Z,15.00
2022-09-06T03:30:47.362Z,15.10
2022-09-06T03:33:14.754Z,15.00
2022-09-06T03:35:49.806Z,14.90
2022-09-06T03:38:17.519Z,15.00
2022-09-06T03:40:46.533Z,15.00
2022-09-06T03:43:13.911Z,15.00
2022-09-06T03:45:44.245Z,15.00
2022-09-06T03:48:11.479Z,15.00
2022-09-06T03:50:38.726Z,15.00
2022-09-06T03:53:05.950Z,14.90
2022-09-06T03:55:33.202Z,14.80
2022-09-06T03:58:00.419Z,14.70
2022-09-06T04:00:27.778Z,14.70
2022-09-06T04:02:58.574Z,14.70
2022-09-06T04:05:28.302Z,14.70
2022-09-06T04:07:55.543Z,14.70
2022-09-06T04:10:22.815Z,14.70
2022-09-06T04:12:50.043Z,14.70
2022-09-06T04:15:17.357Z,14.60
2022-09-06T04:17:45.910Z,14.60
2022-09-06T04:20:14.045Z,14.60
2022-09-06T04:22:41.599Z,14.60
2022-09-06T04:25:09.381Z,14.60
2022-09-06T04:27:36.671Z,14.60
2022-09-06T04:30:04.318Z,14.70
2022-09-06T04:32:32.643Z,14.70
2022-09-06T04:34:59.874Z,14.60
2022-09-06T04:37:27.160Z,14.50
2022-09-06T04:39:54.568Z,14.50
2022-09-06T04:42:21.919Z,14.40
2022-09-06T04:44:49.165Z,14.40
2022-09-06T04:47:18.117Z,14.40
2022-09-06T04:49:45.628Z,14.40
2022-09-06T04:52:12.863Z,14.40
2022-09-06T04:54:40.100Z,14.40
2022-09-06T04:57:07.425Z,14.60
2022-09-06T04:59:34.666Z,14.50
2022-09-06T05:02:01.962Z,14.60
2022-09-06T05:04:29.259Z,14.60
2022-09-06T05:07:01.873Z,14.70
2022-09-06T05:09:29.250Z,14.70
2022-09-06T05:11:56.485Z,14.70
2022-09-06T05:14:23.697Z,14.80
2022-09-06T05:16:51.411Z,14.90
2022-09-06T05:19:19.133Z,14.90
2022-09-06T05:21:46.432Z,14.90
2022-09-06T05:24:13.719Z,15.00
2022-09-06T05:26:40.970Z,15.10
2022-09-06T05:29:08.246Z,15.20
2022-09-06T05:31:35.811Z,15.00
2022-09-06T05:34:03.106Z,15.00
2022-09-06T05:36:30.694Z,15.10
2022-09-06T05:38:58.170Z,15.10
2022-09-06T05:41:25.653Z,15.10
2022-09-06T05:43:52.955Z,15.10
2022-09-06T05:46:20.270Z,15.20
2022-09-06T05:48:54.971Z,15.20
2022-09-06T05:51:22.220Z,15.30
2022-09-06T05:53:49.550Z,15.40
2022-09-06T05:56:17.158Z,15.40
2022-09-06T05:58:44.585Z,15.50
2022-09-06T06:01:17.362Z,15.60
2022-09-06T06:03:54.638Z,15.70
2022-09-06T06:06:22.113Z,15.70
2022-09-06T06:08:49.538Z,15.80
2022-09-06T06:11:16.835Z,16.00
2022-09-06T06:13:44.214Z,16.10
2022-09-06T06:16:12.772Z,16.30
2022-09-06T06:18:40.227Z,16.50
2022-09-06T06:21:15.321Z,16.70
2022-09-06T06:23:44.155Z,16.90
2022-09-06T06:26:12.197Z,17.00
2022-09-06T06:28:39.615Z,17.20
2022-09-06T06:31:07.606Z,17.30
2022-09-06T06:33:36.250Z,17.40
2022-09-06T06:36:13.187Z,17.60
2022-09-06T06:38:44.422Z,17.70
2022-09-06T06:41:13.221Z,17.80
2022-09-06T06:43:40.706Z,17.70
2022-09-06T06:46:08.777Z,17.80
2022-09-06T06:48:36.800Z,17.80
2022-09-06T06:51:04.155Z,17.80
2022-09-06T06:53:32.732Z,17.90
2022-09-06T06:56:00.035Z,18.00
2022-09-06T06:58:27.530Z,18.00
2022-09-06T07:00:54.924Z,18.10
2022-09-06T07:03:22.261Z,18.20
2022-09-06T07:08:39.600Z,18.40
2022-09-06T07:11:07.218Z,18.40
2022-09-06T07:13:34.571Z,18.50
2022-09-06T07:16:20.592Z,18.60
2022-09-06T07:18:51.015Z,18.60
2022-09-06T07:24:10.306Z,18.80
2022-09-06T07:26:39.553Z,18.80
2022-09-06T07:29:07.332Z,18.80
2022-09-06T07:34:25.095Z,18.70
2022-09-06T07:36:53.597Z,18.60
2022-09-06T07:39:20.837Z,18.70
2022-09-06T07:41:48.175Z,18.60
2022-09-06T07:44:15.655Z,18.60
2022-09-06T07:46:42.962Z,18.60
2022-09-06T07:49:10.217Z,18.60
2022-09-06T07:51:37.525Z,18.50
2022-09-06T07:56:52.337Z,18.50
2022-09-06T07:59:19.550Z,18.50
2022-09-06T08:01:47.609Z,18.60
2022-09-06T08:04:15.073Z,18.60
2022-09-06T08:09:32.163Z,18.90
2022-09-06T08:11:59.479Z,19.20
2022-09-06T08:14:26.710Z,19.40
2022-09-06T08:16:53.936Z,19.90
2022-09-06T08:19:21.221Z,20.10
2022-09-06T08:21:48.505Z,20.30
2022-09-06T08:24:15.873Z,20.60
2022-09-06T08:26:43.265Z,20.80
2022-09-06T08:29:10.942Z,21.00
2022-09-06T08:31:39.901Z,21.00
2022-09-06T08:34:07.204Z,21.10
2022-09-06T08:36:34.495Z,21.00
2022-09-06T08:39:03.559Z,20.80
2022-09-06T08:41:40.038Z,20.70
2022-09-06T08:47:01.322Z,20.40
2022-09-06T08:49:34.147Z,20.40
2022-09-06T08:52:07.706Z,20.50
2022-09-06T08:55:02.250Z,20.40
2022-09-06T08:57:40.506Z,20.30
2022-09-06T09:00:11.273Z,20.30
2022-09-06T09:03:14.539Z,20.40
2022-09-06T09:05:43.846Z,20.30
2022-09-06T09:08:24.069Z,20.50
2022-09-06T09:11:03.286Z,20.70
2022-09-06T09:13:30.486Z,20.70
2022-09-06T09:15:57.805Z,20.70
2022-09-06T09:18:31.259Z,20.60
2022-09-06T09:20:58.897Z,20.60
2022-09-06T09:23:26.155Z,20.60
2022-09-06T09:25:53.476Z,20.60
2022-09-06T09:28:23.702Z,20.70
2022-09-06T09:30:52.561Z,20.90
2022-09-06T09:33:27.431Z,21.20
2022-09-06T09:35:56.013Z,21.50
2022-09-06T09:38:27.939Z,21.80
2022-09-06T09:40:56.088Z,22.00
2022-09-06T09:43:37.138Z,22.10
2022-09-06T09:46:22.834Z,22.30
2022-09-06T09:49:02.202Z,22.60
2022-09-06T09:51:29.976Z,22.70
2022-09-06T09:54:01.931Z,22.90
2022-09-06T09:56:36.377Z,23.10
2022-09-06T09:59:07.066Z,23.10
2022-09-06T10:01:34.309Z,23.20
2022-09-06T10:09:43.431Z,23.70
2022-09-06T10:12:18.158Z,23.70
2022-09-06T10:14:46.431Z,23.80
2022-09-06T10:17:26.631Z,23.80
2022-09-06T10:19:54.092Z,23.70
2022-09-06T10:22:21.353Z,23.70
2022-09-06T10:24:59.130Z,23.70
2022-09-06T10:27:27.061Z,23.60
2022-09-06T10:29:55.899Z,23.50
2022-09-06T10:32:42.544Z,23.70
2022-09-06T10:35:22.153Z,23.90
2022-09-06T10:38:03.065Z,24.10
2022-09-06T10:41:21.197Z,24.40
2022-09-06T10:44:09.502Z,24.60
2022-09-06T10:46:37.232Z,24.70
2022-09-06T10:49:04.614Z,24.60
2022-09-06T10:51:38.746Z,24.70
2022-09-06T10:54:06.766Z,24.60
2022-09-06T10:56:56.017Z,24.50
2022-09-06T10:59:35.984Z,24.60
2022-09-06T11:02:16.235Z,24.60
2022-09-06T11:10:37.781Z,24.60
2022-09-06T11:13:16.298Z,24.70
2022-09-06T11:15:45.526Z,24.90
2022-09-06T11:18:50.606Z,24.90
2022-09-06T11:21:55.673Z,25.00
2022-09-06T11:24:50.919Z,25.20
2022-09-06T11:27:24.493Z,25.40
2022-09-06T11:29:56.359Z,25.40
2022-09-06T11:32:50.273Z,25.50
2022-09-06T11:35:34.888Z,25.40
2022-09-06T11:38:28.567Z,25.60
2022-09-06T11:41:00.925Z,25.60
2022-09-06T11:43:43.373Z,25.60
2022-09-06T11:46:10.820Z,25.80
2022-09-06T11:48:50.475Z,25.90
2022-09-06T11:51:35.288Z,25.90
2022-09-06T11:54:04.893Z,25.80
2022-09-06T11:56:42.339Z,25.70
2022-09-06T11:59:18.938Z,25.60
2022-09-06T12:02:46.054Z,25.80
2022-09-06T12:05:27.355Z,25.90
2022-09-06T12:08:22.639Z,26.10
2022-09-06T12:10:51.063Z,26.30
2022-09-06T12:13:46.070Z,26.10
2022-09-06T12:16:13.978Z,26.20
2022-09-06T12:18:47.066Z,26.40
2022-09-06T12:21:40.515Z,26.20
2022-09-06T12:24:33.827Z,26.20
2022-09-06T12:27:16.452Z,26.20
2022-09-06T12:29:54.986Z,26.20
2022-09-06T12:32:27.383Z,26.40
2022-09-06T12:37:54.511Z,26.60
2022-09-06T12:40:22.935Z,26.70
2022-09-06T12:42:51.604Z,26.80
2022-09-06T12:45:21.190Z,27.00
2022-09-06T12:47:52.151Z,27.00
2022-09-06T12:50:21.030Z,27.20
2022-09-06T12:52:53.023Z,27.40
2022-09-06T12:55:32.640Z,27.40
2022-09-06T12:58:02.131Z,27.30
2022-09-06T13:00:51.346Z,27.30
2022-09-06T13:03:28.552Z,27.20
2022-09-06T13:05:56.395Z,27.10
2022-09-06T13:08:40.355Z,27.20
2022-09-06T13:11:10.494Z,27.40
2022-09-06T13:13:37.824Z,27.50
2022-09-06T13:16:05.229Z,27.50
2022-09-06T13:18:35.388Z,27.70
2022-09-06T13:21:04.909Z,27.70
2022-09-06T13:23:48.723Z,27.80
2022-09-06T13:26:15.990Z,27.70
2022-09-06T13:28:43.383Z,27.50
2022-09-06T13:31:18.040Z,27.40
2022-09-06T13:33:46.368Z,27.60
2022-09-06T13:36:13.695Z,27.70
2022-09-06T13:38:42.011Z,27.80
2022-09-06T13:41:27.654Z,27.70
2022-09-06T13:44:05.937Z,27.30
2022-09-06T13:46:33.811Z,27.30
2022-09-06T13:49:01.131Z,27.20
2022-09-06T13:51:28.530Z,27.10
2022-09-06T13:54:10.433Z,27.00
2022-09-06T13:56:37.717Z,26.80
2022-09-06T13:59:04.992Z,26.80
2022-09-06T14:01:33.295Z,26.90
2022-09-06T14:04:00.607Z,27.00
2022-09-06T14:06:28.014Z,27.00
2022-09-06T14:09:06.814Z,27.00
2022-09-06T14:11:35.379Z,26.80
2022-09-06T14:14:02.683Z,26.80
2022-09-06T14:16:30.050Z,26.80
2022-09-06T14:18:57.623Z,26.90
2022-09-06T14:21:25.000Z,27.00
2022-09-06T14:23:52.590Z,26.80
2022-09-06T14:26:20.869Z,26.80
2022-09-06T14:28:48.394Z,26.60
2022-09-06T14:31:20.893Z,26.50
2022-09-06T14:33:48.359Z,26.50
2022-09-06T14:36:17.114Z,26.50
2022-09-06T14:38:44.793Z,26.60
2022-09-06T14:41:14.407Z,26.70
2022-09-06T14:43:48.658Z,26.80
2022-09-06T14:46:16.152Z,27.00
2022-09-06T14:48:43.626Z,27.00
2022-09-06T14:51:13.075Z,27.00
2022-09-06T14:53:43.891Z,26.90
2022-09-06T14:56:11.706Z,26.90
2022-09-06T14:58:39.305Z,26.80
2022-09-06T15:01:18.252Z,26.70
2022-09-06T15:03:51.554Z,26.70
2022-09-06T15:06:20.011Z,26.80
2022-09-06T15:08:48.477Z,26.70
2022-09-06T15:11:34.789Z,26.70
2022-09-06T15:14:08.468Z,26.80
2022-09-06T15:16:36.187Z,26.80
2022-09-06T15:19:03.570Z,26.80
2022-09-06T15:21:31.233Z,26.80
2022-09-06T15:23:58.879Z,26.60
2022-09-06T15:26:26.141Z,26.60
2022-09-06T15:28:53.643Z,26.60
2022-09-06T15:31:21.072Z,26.60
2022-09-06T15:33:51.055Z,26.60
2022-09-06T15:36:18.546Z,26.60
2022-09-06T15:38:47.915Z,26.50
2022-09-06T15:41:20.207Z,26.30
2022-09-06T15:43:48.613Z,26.20
2022-09-06T15:46:17.146Z,26.10
2022-09-06T15:48:45.917Z,26.20
2022-09-06T15:51:15.849Z,26.20
2022-09-06T15:53:43.381Z,26.10
2022-09-06T15:56:12.730Z,26.10
2022-09-06T15:58:40.068Z,26.10
2022-09-06T16:01:17.066Z,26.10
2022-09-06T16:03:46.163Z,26.20
2022-09-06T16:06:26.722Z,26.20
2022-09-06T16:09:00.144Z,26.20
2022-09-06T16:11:28.169Z,26.30
2022-09-06T16:13:55.514Z,26.30
2022-09-06T16:16:22.923Z,26.30
2022-09-06T16:18:51.826Z,26.20
2022-09-06T16:21:23.907Z,26.10
2022-09-06T16:23:56.765Z,25.90
2022-09-06T16:26:24.666Z,25.90
2022-09-06T16:28:52.202Z,25.90
2022-09-06T16:31:19.841Z,25.90
2022-09-06T16:33:48.794Z,25.80
2022-09-06T16:36:16.728Z,25.70
2022-09-06T16:38:44.210Z,25.60
2022-09-06T16:41:22.690Z,25.60
2022-09-06T16:43:50.047Z,25.50
2022-09-06T16:46:17.521Z,25.40
2022-09-06T16:48:51.319Z,25.30
2022-09-06T16:51:18.967Z,25.30
2022-09-06T16:53:46.911Z,25.30
2022-09-06T16:56:16.164Z,25.20
2022-09-06T16:58:44.015Z,25.00
2022-09-06T17:01:12.237Z,25.10
2022-09-06T17:03:39.578Z,25.10
2022-09-06T17:06:07.497Z,25.20
2022-09-06T17:08:35.278Z,25.20
2022-09-06T17:11:07.671Z,25.10
2022-09-06T17:13:35.214Z,25.10
2022-09-06T17:16:22.438Z,25.10
2022-09-06T17:18:53.505Z,25.00
2022-09-06T17:21:21.808Z,25.00
2022-09-06T17:23:49.922Z,24.90
2022-09-06T17:26:24.466Z,24.50
2022-09-06T17:28:51.811Z,24.30
2022-09-06T17:31:24.987Z,24.20
2022-09-06T17:33:53.178Z,24.10
2022-09-06T17:36:25.374Z,24.00
2022-09-06T17:38:53.896Z,23.90
2022-09-06T17:41:21.421Z,23.80
2022-09-06T17:43:48.803Z,23.70
2022-09-06T17:46:16.176Z,23.60
2022-09-06T17:48:43.549Z,23.40
2022-09-06T17:51:11.401Z,23.30
2022-09-06T17:53:38.760Z,23.20
2022-09-06T17:56:09.777Z,23.30
2022-09-06T17:58:37.311Z,23.30
2022-09-06T18:01:06.420Z,23.30
2022-09-06T18:03:34.873Z,23.20
2022-09-06T18:06:03.756Z,23.10
2022-09-06T18:08:31.123Z,23.00
2022-09-06T18:10:58.375Z,22.80
2022-09-06T18:13:25.644Z,22.80
2022-09-06T18:15:52.888Z,22.70
2022-09-06T18:18:20.196Z,22.70
2022-09-06T18:20:51.216Z,22.70
2022-09-06T18:23:18.464Z,22.70
2022-09-06T18:25:55.975Z,22.60
2022-09-06T18:28:23.336Z,22.40
2022-09-06T18:30:50.975Z,22.30
2022-09-06T18:33:18.294Z,22.30
2022-09-06T18:35:45.618Z,22.30
2022-09-06T18:38:12.902Z,22.30
2022-09-06T18:40:40.572Z,22.20
2022-09-06T18:43:08.159Z,22.10
2022-09-06T18:45:35.765Z,22.00
2022-09-06T18:48:04.019Z,21.80
2022-09-06T18:50:31.279Z,21.80
2022-09-06T18:52:58.519Z,21.70
2022-09-06T18:55:25.770Z,21.70
2022-09-06T18:57:55.115Z,21.60
2022-09-06T19:00:22.973Z,21.50
2022-09-06T19:02:50.218Z,21.40
2022-09-06T19:05:17.479Z,21.40
2022-09-06T19:07:44.716Z,21.40
2022-09-06T19:10:11.971Z,21.50
2022-09-06T19:12:39.438Z,21.40
2022-09-06T19:15:07.228Z,21.30
2022-09-06T19:17:34.527Z,21.20
2022-09-06T19:20:02.630Z,21.20
2022-09-06T19:22:29.894Z,21.10
2022-09-06T19:24:57.151Z,21.10
2022-09-06T19:27:24.406Z,21.20
2022-09-06T19:29:51.676Z,21.20
2022-09-06T19:32:22.175Z,21.20
2022-09-06T19:34:49.554Z,21.20
2022-09-06T19:37:19.110Z,21.20
2022-09-06T19:39:46.759Z,21.10
2022-09-06T19:42:14.023Z,21.00
2022-09-06T19:44:41.335Z,20.90
2022-09-06T19:47:08.704Z,20.90
2022-09-06T19:49:36.015Z,21.00
2022-09-06T19:52:09.409Z,21.00
2022-09-06T19:54:37.628Z,21.00
2022-09-06T19:57:05.918Z,21.00
2022-09-06T19:59:36.037Z,20.90
2022-09-06T20:02:03.463Z,20.80
2022-09-06T20:04:30.853Z,20.80
2022-09-06T20:06:58.162Z,20.80
2022-09-06T20:09:25.492Z,20.80
2022-09-06T20:11:53.214Z,20.80
2022-09-06T20:14:20.762Z,20.70
2022-09-06T20:16:48.248Z,20.60
2022-09-06T20:19:15.789Z,20.50
2022-09-06T20:21:43.148Z,20.40
2022-09-06T20:24:10.420Z,20.30
2022-09-06T20:26:37.847Z,20.20
2022-09-06T20:29:05.341Z,20.20
2022-09-06T20:31:33.083Z,20.30
2022-09-06T20:34:01.274Z,20.30
2022-09-06T20:36:28.671Z,20.30
2022-09-06T20:38:56.159Z,20.30
2022-09-06T20:41:24.429Z,20.20
2022-09-06T20:43:55.714Z,20.10
2022-09-06T20:46:24.810Z,20.00
2022-09-06T20:48:52.271Z,20.00
2022-09-06T20:51:21.055Z,20.00
2022-09-06T20:53:53.264Z,20.00
2022-09-06T20:56:22.702Z,19.90
2022-09-06T20:59:00.844Z,19.80
2022-09-06T21:01:34.479Z,19.80
2022-09-06T21:04:02.758Z,19.70
2022-09-06T21:06:31.395Z,19.80
2022-09-06T21:08:58.663Z,19.70
2022-09-06T21:11:25.991Z,19.70
2022-09-06T21:13:55.796Z,19.80
2022-09-06T21:16:25.236Z,19.70
2022-09-06T21:18:56.703Z,19.60
2022-09-06T21:21:25.380Z,19.50
2022-09-06T21:23:52.934Z,19.50
2022-09-06T21:26:21.603Z,19.60
2022-09-06T21:28:49.199Z,19.60
2022-09-06T21:31:22.819Z,19.60
2022-09-06T21:33:57.531Z,19.40
2022-09-06T21:36:29.202Z,19.40
2022-09-06T21:38:59.028Z,19.40
2022-09-06T21:41:26.543Z,19.40
2022-09-06T21:43:58.186Z,19.40
2022-09-06T21:46:32.569Z,19.30
2022-09-06T21:49:01.111Z,19.10
2022-09-06T21:51:28.334Z,19.10
2022-09-06T21:53:56.988Z,19.00
2022-09-06T21:56:24.465Z,18.90
2022-09-06T21:58:55.953Z,18.90
2022-09-06T22:01:24.099Z,18.90
2022-09-06T22:03:51.518Z,18.80
2022-09-06T22:06:28.604Z,18.90
2022-09-06T22:08:57.590Z,18.70
2022-09-06T22:11:26.951Z,18.70
2022-09-06T22:13:54.331Z,18.80
2022-09-06T22:16:22.320Z,18.70
2022-09-06T22:18:50.001Z,18.60
2022-09-06T22:21:20.115Z,18.70
2022-09-06T22:23:51.269Z,18.70
2022-09-06T22:26:18.677Z,18.70
2022-09-06T22:28:46.111Z,18.80
2022-09-06T22:31:13.866Z,18.70
2022-09-06T22:33:41.167Z,18.60
2022-09-06T22:36:10.258Z,18.50
2022-09-06T22:38:37.672Z,18.50
2022-09-06T22:41:04.994Z,18.40
2022-09-06T22:43:32.278Z,18.30
2022-09-06T22:46:06.599Z,18.30
2022-09-06T22:48:34.146Z,18.30
2022-09-06T22:51:01.674Z,18.20
2022-09-06T22:53:29.265Z,18.20
2022-09-06T22:55:56.550Z,18.30
2022-09-06T22:58:24.546Z,18.30
2022-09-06T23:00:51.963Z,18.20
2022-09-06T23:03:19.403Z,18.20
2022-09-06T23:05:46.707Z,18.30
2022-09-06T23:08:14.623Z,18.20
2022-09-06T23:10:42.630Z,18.10
2022-09-06T23:13:10.442Z,18.00
2022-09-06T23:15:38.688Z,18.00
2022-09-06T23:18:06.036Z,18.00
2022-09-06T23:20:34.880Z,17.90
2022-09-06T23:23:02.124Z,17.90
2022-09-06T23:25:29.411Z,17.90
2022-09-06T23:27:59.151Z,17.90
2022-09-06T23:30:26.606Z,17.80
2022-09-06T23:32:56.295Z,17.90
2022-09-06T23:35:23.863Z,17.90
2022-09-06T23:37:51.374Z,17.90
2022-09-06T23:40:19.525Z,18.00
2022-09-06T23:42:47.083Z,17.90
2022-09-06T23:45:14.600Z,18.00
2022-09-06T23:47:41.910Z,17.80
2022-09-06T23:50:09.467Z,17.80
2022-09-06T23:52:36.723Z,17.80
2022-09-06T23:55:04.390Z,17.80
2022-09-06T23:57:31.631Z,17.80
2022-09-06T23:59:58.892Z,17.90
